Flight Track Log - Related Links

Times and Time Zones

All times are in EDT time to prevent confusion due to time zone crossing. See the ASQ4293 flight status page for this flight to view local times or setup timezone preferences in your user account.

Time Position Orientation Groundspeed Altitude Reporting Facility
EDT Latitude Longitude Course Direction KTS MPH feet Rate Location/Type
Fri 01:17:40 PM 33.4333 -112.0333 168° South 174 200 1,900  Level Phoenix TRACON
Fri 01:18:40 PM 33.4167 -112.1167 257° West 222 255 3,600 1,683 Climbing Phoenix TRACON
Fri 01:19:59 PM 33.3639 -112.1747 223° Southwest 261 300 5,800 1,830 Climbing Albuquerque Center
Fri 01:20:00 PM 33.1249 -111.9479 168° South  Level FlightAware Approximate
Fri 01:21:00 PM 33.0222 -111.9333 180° South  Level FlightAware Approximate
Fri 01:21:01 PM 33.3228 -112.1100 127° Southeast 277 319 7,900  Level Albuquerque Center
Fri 01:22:00 PM 32.9217 -111.9096 168° South  Level FlightAware Approximate
Fri 01:22:03 PM 33.3067 -112.0203 102° East 278 320 10,000  Level Albuquerque Center
Fri 01:23:04 PM 33.2861 -111.9000 102° East 313 360 11,500 1,230 Climbing Albuquerque Center
Fri 01:24:05 PM 33.2642 -111.7864 103° East 347 399 12,500 1,073 Climbing Albuquerque Center
Fri 01:25:07 PM 33.2408 -111.6661 103° East 370 426 13,700 1,306 Climbing Albuquerque Center
Fri 01:26:09 PM 33.2197 -111.5431 102° East 379 436 15,200 1,610 Climbing Albuquerque Center
Fri 01:27:10 PM 33.2000 -111.4222 101° East 373 429 17,000 1,659 Climbing Albuquerque Center
Fri 01:28:12 PM 33.1747 -111.3053 104° East 367 422 18,600 1,512 Climbing Albuquerque Center
Fri 01:29:13 PM 33.1408 -111.1681 106° East 361 415 20,100 1,707 Climbing Albuquerque Center
Fri 01:30:15 PM 33.1144 -111.0586 106° East 348 400 22,100 1,742 Climbing Albuquerque Center
Fri 01:31:17 PM 33.0872 -110.9536 107° East 336 387 23,700 1,415 Climbing Albuquerque Center
Fri 01:32:18 PM 33.0608 -110.8483 107° East 333 383 25,000 1,024 Climbing Albuquerque Center
Fri 01:33:20 PM 33.0339 -110.7394 106° East 341 392 25,800 780 Climbing Albuquerque Center
Fri 01:34:21 PM 33.0050 -110.6242 107° East 358 412 26,600 829 Climbing Albuquerque Center
Fri 01:35:23 PM 32.9750 -110.5039 107° East 374 430 27,500 1,161 Climbing Albuquerque Center
Fri 01:36:25 PM 32.9369 -110.3586 107° East 382 440 29,000 1,463 Climbing Albuquerque Center
Fri 01:37:26 PM 32.9081 -110.2400 106° East 377 434 30,500 1,415 Climbing Albuquerque Center
Fri 01:38:28 PM 32.8786 -110.1256 107° East 366 421 31,900 1,210 Climbing Albuquerque Center
Fri 01:39:30 PM 32.8492 -110.0086 107° East 364 419 33,000 1,073 Climbing Albuquerque Center
Fri 01:40:31 PM 32.8197 -109.8964 107° East 360 414 34,100 927 Climbing Albuquerque Center
Fri 01:41:33 PM 32.7903 -109.7850 107° East 354 407 34,900 435 Climbing Albuquerque Center
Fri 01:42:35 PM 32.7617 -109.6669 106° East 367 422 35,000 49 Climbing Albuquerque Center
Fri 01:43:36 PM 32.7267 -109.5425 108° East 391 450 35,000  Level Albuquerque Center
Fri 01:44:38 PM 32.6844 -109.3817 107° East 421 484 35,000  Level Albuquerque Center
Fri 01:45:40 PM 32.6489 -109.2417 107° East 438 504 35,000  Level Albuquerque Center
Fri 01:46:41 PM 32.6100 -109.1011 108° East 448 516 35,000  Level Albuquerque Center
Fri 01:47:43 PM 32.5725 -108.9600 107° East 450 518 35,000  Level Albuquerque Center
Fri 01:48:45 PM 32.5339 -108.8186 108° East 452 520 35,000  Level Albuquerque Center
Fri 01:49:47 PM 32.4908 -108.6772 110° East 456 525 35,000  Level Albuquerque Center
Fri 01:50:48 PM 32.4528 -108.5353 108° East 456 525 35,000  Level Albuquerque Center
Fri 01:51:50 PM 32.4081 -108.3672 107° East 450 518 35,000  Level Albuquerque Center
Fri 01:52:52 PM 32.3681 -108.2256 108° East 453 521 35,000  Level Albuquerque Center
Fri 01:53:53 PM 32.3303 -108.0856 108° East 451 519 35,000  Level Albuquerque Center
Fri 01:54:55 PM 32.2911 -107.9458 108° East 450 518 35,000  Level Albuquerque Center
Fri 01:55:57 PM 32.2525 -107.8069 108° East 448 516 35,000  Level Albuquerque Center
Fri 01:56:58 PM 32.2139 -107.6678 108° East 449 517 35,000  Level Albuquerque Center
Fri 01:58:00 PM 32.1675 -107.5014 108° East 450 518 35,000  Level Albuquerque Center
Fri 01:59:02 PM 32.1286 -107.3628 108° East 450 518 35,000  Level Albuquerque Center
Fri 02:00:04 PM 32.0894 -107.2244 108° East 449 517 35,000  Level Albuquerque Center
Fri 02:01:05 PM 32.0494 -107.0856 109° East 451 519 35,000  Level Albuquerque Center
Fri 02:02:07 PM 32.0111 -106.9469 108° East 450 518 35,000  Level Albuquerque Center
Fri 02:03:09 PM 31.9625 -106.7822 109° East 447 514 35,000  Level Albuquerque Center
Fri 02:04:10 PM 31.9222 -106.6436 109° East 450 518 35,000  Level Albuquerque Center
Fri 02:05:12 PM 31.8828 -106.5114 109° East 452 520 35,000  Level Albuquerque Center
Fri 02:06:14 PM 31.8436 -106.3697 108° East 456 525 35,000  Level Albuquerque Center
Fri 02:07:15 PM 31.8053 -106.2303 108° East 450 518 35,000  Level Albuquerque Center
Fri 02:08:17 PM 31.7689 -106.0911 107° East 446 513 35,000  Level Albuquerque Center
Fri 02:09:19 PM 31.7264 -105.9239 107° East 445 512 35,000  Level Albuquerque Center
Fri 02:10:20 PM 31.6917 -105.7839 106° East 447 514 35,000  Level Albuquerque Center
Fri 02:11:22 PM 31.6567 -105.6444 106° East 446 513 35,000  Level Albuquerque Center
Fri 02:12:23 PM 31.6217 -105.5047 106° East 445 512 35,000  Level Albuquerque Center
Fri 02:13:25 PM 31.5853 -105.3650 107° East 447 514 35,000  Level Albuquerque Center
Fri 02:14:27 PM 31.5503 -105.2269 107° East 442 509 35,000  Level Albuquerque Center
Fri 02:15:28 PM 31.5156 -105.0869 106° East 445 512 35,000  Level Albuquerque Center
Fri 02:16:30 PM 31.4803 -104.9472 106° East 445 512 35,000  Level Albuquerque Center
Fri 02:17:31 PM 31.4431 -104.8075 107° East 446 513 35,000  Level Albuquerque Center
Fri 02:18:33 PM 31.4006 -104.6403 107° East 445 512 35,000  Level Albuquerque Center
Fri 02:19:35 PM 31.3633 -104.5000 107° East 448 516 35,000  Level Albuquerque Center
Fri 02:20:36 PM 31.3269 -104.3600 107° East 449 517 35,000  Level Albuquerque Center
Fri 02:21:38 PM 31.2919 -104.2208 106° East 447 514 35,000  Level Albuquerque Center
Fri 02:22:39 PM 31.2542 -104.0822 108° East 448 516 35,000  Level Albuquerque Center
Fri 02:23:41 PM 31.2161 -103.9436 108° East 447 514 35,000  Level Albuquerque Center
Fri 02:24:42 PM 31.1778 -103.8039 108° East 451 519 35,000  Level Albuquerque Center
Fri 02:25:44 PM 31.1353 -103.6506 108° East 445 512 35,000  Level Albuquerque Center
Fri 02:26:45 PM 31.0969 -103.5144 108° East 444 511 35,000  Level Albuquerque Center
Fri 02:27:47 PM 31.0606 -103.3800 108° East 440 506 35,000  Level Albuquerque Center
Fri 02:28:48 PM 31.0231 -103.2458 108° East 437 503 35,000  Level Albuquerque Center
Fri 02:29:50 PM 30.9892 -103.1131 107° East 432 497 35,000  Level Albuquerque Center
Fri 02:30:51 PM 30.9442 -102.9522 108° East 434 499 35,000  Level Albuquerque Center
Fri 02:31:53 PM 30.9097 -102.8164 106° East 439 505 35,000  Level Albuquerque Center
Fri 02:32:54 PM 30.8742 -102.6814 107° East 440 506 35,000  Level Albuquerque Center
Fri 02:33:56 PM 30.8397 -102.5467 107° East 438 504 35,000  Level Albuquerque Center
Fri 02:34:57 PM 30.8044 -102.4122 107° East 439 505 35,000  Level Albuquerque Center
Fri 02:35:59 PM 30.7689 -102.2783 107° East 438 504 35,000  Level Albuquerque Center
Fri 02:37:00 PM 30.7336 -102.1442 107° East 438 504 35,000  Level Albuquerque Center
Fri 02:38:02 PM 30.6919 -101.9831 107° East 437 503 35,000  Level Albuquerque Center
Fri 02:39:10 PM 30.6564 -101.8483 107° East 437 503 35,000  Level Houston Center
Fri 02:40:11 PM 30.6211 -101.7150 107° East 434 499 35,000  Level Houston Center
Fri 02:41:13 PM 30.5803 -101.5614 107° East 432 497 35,000  Level Houston Center
Fri 02:42:14 PM 30.5442 -101.4292 108° East 431 496 35,000  Level Houston Center
Fri 02:43:16 PM 30.5086 -101.2983 107° East 428 493 35,000  Level Houston Center
Fri 02:44:17 PM 30.4722 -101.1667 108° East 429 494 35,000  Level Houston Center
Fri 02:45:19 PM 30.4372 -101.0361 107° East 426 490 35,000  Level Houston Center
Fri 02:46:20 PM 30.4006 -100.9058 108° East 426 490 35,000  Level Houston Center
Fri 02:47:22 PM 30.3661 -100.7764 107° East 422 486 35,000  Level Houston Center
Fri 02:48:23 PM 30.3294 -100.6456 108° East 420 483 35,000  Level Houston Center
Fri 02:49:24 PM 30.2872 -100.4925 108° East 422 486 35,000  Level Houston Center
Fri 02:50:26 PM 30.2508 -100.3606 108° East 425 489 35,000  Level Houston Center
Fri 02:51:27 PM 30.2142 -100.2253 107° East 431 496 35,000  Level Houston Center
Fri 02:52:29 PM 30.1750 -100.0864 108° East 443 510 35,000  Level Houston Center
Fri 02:53:30 PM 30.1342 -99.9489 109° East 447 514 35,000  Level Houston Center
Fri 02:54:32 PM 30.0939 -99.8092 108° East 455 524 35,000  Level Houston Center
Fri 02:55:33 PM 30.0544 -99.6708 108° East 455 524 35,000  Level Houston Center
Fri 02:56:35 PM 30.0139 -99.5311 109° East 458 527 35,000  Level Houston Center
Fri 02:57:36 PM 29.9747 -99.3914 108° East 459 528 35,000  Level Houston Center
Fri 02:58:37 PM 29.9342 -99.2531 109° East 458 527 35,000  Level Houston Center
Fri 02:59:39 PM 29.8875 -99.1156 111° Southeast 462 532 35,000  Level Houston Center
Fri 03:00:40 PM 29.8261 -98.9511 113° Southeast 461 531 35,000  Level Houston Center
Fri 03:01:41 PM 29.7756 -98.8156 113° Southeast 462 532 35,000  Level Houston Center
Fri 03:02:43 PM 29.7256 -98.6797 113° Southeast 461 531 35,000  Level Houston Center
Fri 03:03:44 PM 29.6753 -98.5442 113° Southeast 460 529 35,000  Level Houston Center
Fri 03:04:45 PM 29.6481 -98.3861 101° East 470 541 35,000  Level Houston Center
Fri 03:05:47 PM 29.6481 -98.2383 90° East 462 532 35,000  Level Houston Center
Fri 03:06:48 PM 29.6497 -98.0914 89° East 461 531 35,000  Level Houston Center
Fri 03:07:49 PM 29.6511 -97.9439 89° East 463 533 35,000 -49 Level Houston Center
Fri 03:08:51 PM 29.6533 -97.8094 89° East 464 534 34,900 -537 Descending Houston Center
Fri 03:09:52 PM 29.6553 -97.6658 89° East 453 521 33,900 -1,180 Descending Houston Center
Fri 03:10:53 PM 29.6558 -97.5258 90° East 443 510 32,500 -2,049 Descending Houston Center
Fri 03:11:55 PM 29.6592 -97.3511 89° East 454 522 29,700 -2,634 Descending Houston Center
Fri 03:12:56 PM 29.6592 -97.1994 90° East 468 539 27,100 -2,557 Descending Houston Center
Fri 03:13:57 PM 29.6603 -97.0522 89° East 461 531 24,500 -2,459 Descending Houston Center
Fri 03:14:58 PM 29.6469 -96.9114 96° East 443 510 22,100 -2,293 Descending Houston Center
Fri 03:16:00 PM 29.6206 -96.7786 103° East 426 490 19,800 -2,146 Descending Houston Center
Fri 03:17:01 PM 29.5683 -96.6603 117° Southeast 411 473 17,700 -2,000 Descending Houston Center
Fri 03:18:03 PM 29.5153 -96.5433 118° Southeast 410 472 15,700 -1,951 Descending Houston Center
Fri 03:19:04 PM 29.4569 -96.4419 123° Southeast 386 444 13,700 -1,829 Descending Houston Center
Fri 03:19:48 PM 29.4261 -96.3647 115° Southeast 345 397 12,500 -1,486 Descending Houston Center
Fri 03:20:49 PM 29.4750 -96.2728 59° Northeast 335 386 11,100 -1,230 Descending Houston Center
Fri 03:21:50 PM 29.5306 -96.1875 53° Northeast 330 380 10,000 -541 Descending Houston Center
Fri 03:22:51 PM 29.5811 -96.0931 58° Northeast 318 366 10,000 -469 Level Houston Center
Fri 03:23:58 PM 29.6261 -96.0064 59° Northeast 285 328 9,000 -1,033 Descending Houston Center
Fri 03:24:53 PM 29.6639 -95.9347 59° Northeast 283 326 7,900 -1,034 Descending Houston Center
Fri 03:25:54 PM 29.7108 -95.8692 50° Northeast 268 308 7,000 -443 Descending Houston Center
Fri 03:26:55 PM 29.7761 -95.8256 30° Northeast 269 310 7,000  Level Houston Center
Fri 03:27:56 PM 29.8458 -95.7814 29° Northeast 273 314 7,000 -295 Level Houston Center
Fri 03:28:57 PM 29.9014 -95.7219 43° Northeast 267 307 6,400 -934 Descending Houston Center
Fri 03:29:58 PM 29.9433 -95.6519 55° Northeast 250 288 5,100 -1,131 Descending Houston Center
Fri 03:30:59 PM 29.9708 -95.5836 65° Northeast 227 261 4,100 -984 Descending Houston Center
Fri 03:32:00 PM 29.9931 -95.5256 66° East 174 200 3,100 -984 Descending Houston Center

Login

Don't have an account? Register now (free) for customized features, flight alerts, and more!